^^
Grace C. Lehan Memorial Weather Station Historical Data
Daily Summary for January 25, 2021 Units:  English    Metric   Both
Daily Weekly Monthly Yearly
  High: Low: Average:
Temperature: 46.8 °F 33 °F 42.5 °F
Dew Point: 38.2 °F 18.3 °F 25.4 °F
Humidity: 80% 36% 51%
Wind Speed: 14.7mph 0mph 5.5mph
Wind Gust: 30mph - -
Wind- - WNW
Pressure: 30.22 in 29.64 in -
Precipitation: 0.00 in    
 
 
Tabular Data for January 25, 2021
Time Temperature Dew Point Pressure Wind Wind Speed Wind Gust Humidity Rainfall Rate (Hourly) solar
00:04 44 °F 38.2 °F 29.66 in SW 0.5 mph 3 mph 80% 0.00 in 0 W/m2
00:09 44 °F 38.1 °F 29.66 in SW 2.2 mph 7 mph 79.5% 0.00 in 0 W/m2
00:14 44.2 °F 38.1 °F 29.65 in SW 1.3 mph 7 mph 79% 0.00 in 0 W/m2
00:19 44.3 °F 38.1 °F 29.65 in SW 0.3 mph 7 mph 78.6% 0.00 in 0 W/m2
00:24 44.6 °F 38 °F 29.65 in SW 1.8 mph 7 mph 77.7% 0.00 in 0 W/m2
00:29 44.8 °F 38 °F 29.65 in SW 0.4 mph 7 mph 77% 0.00 in 0 W/m2
00:34 44.9 °F 37.9 °F 29.65 in SW 0.6 mph 7 mph 76.2% 0.00 in 0 W/m2
00:39 45 °F 37.9 °F 29.65 in SW 0.7 mph 6 mph 75.9% 0.00 in 0 W/m2
00:44 45.2 °F 37.8 °F 29.65 in SW 0.3 mph 6 mph 75.2% 0.00 in 0 W/m2
00:49 45.4 °F 37.8 °F 29.65 in SW 0.6 mph 6 mph 74.5% 0.00 in 0 W/m2
00:54 45.4 °F 37.6 °F 29.65 in SW 0.4 mph 6 mph 74% 0.00 in 0 W/m2
00:59 45.6 °F 37.5 °F 29.65 in SW 0.4 mph 6 mph 73.4% 0.00 in 0 W/m2
01:04 45.7 °F 37.5 °F 29.65 in SW 0.6 mph 11 mph 73% 0.00 in 0 W/m2
01:09 45.7 °F 37.5 °F 29.65 in SW 0.9 mph 11 mph 72.9% 0.00 in 0 W/m2
01:14 45.8 °F 37.3 °F 29.65 in SW 0.7 mph 11 mph 72% 0.00 in 0 W/m2
01:19 45.9 °F 37.4 °F 29.64 in SW 0.5 mph 11 mph 72% 0.00 in 0 W/m2
01:24 46 °F 37.5 °F 29.65 in SW 0.4 mph 11 mph 72% 0.00 in 0 W/m2
01:29 46 °F 37.5 °F 29.65 in SW 1.5 mph 11 mph 72% 0.00 in 0 W/m2
01:34 46.1 °F 37.3 °F 29.65 in WSW 1 mph 11 mph 71.2% 0.00 in 0 W/m2
01:39 46.1 °F 37.2 °F 29.66 in WSW 1 mph 7 mph 71% 0.00 in 0 W/m2
01:44 46.1 °F 37.2 °F 29.66 in SW 0.3 mph 7 mph 71% 0.00 in 0 W/m2
01:49 46.1 °F 37.2 °F 29.66 in SW 0.5 mph 7 mph 71% 0.00 in 0 W/m2
01:54 46.1 °F 37.2 °F 29.66 in SW 0.4 mph 7 mph 71% 0.00 in 0 W/m2
01:59 46 °F 37.1 °F 29.66 in Calm   7 mph 71% 0.00 in 0 W/m2
02:04 45.9 °F 37.1 °F 29.67 in SW 0.1 mph 7 mph 71% 0.00 in 0 W/m2
02:09 45.8 °F 37 °F 29.67 in SW 0.1 mph 2 mph 71% 0.00 in 0 W/m2
02:14 45.7 °F 37 °F 29.67 in SW 0.1 mph 3 mph 71.5% 0.00 in 0 W/m2
02:19 45.6 °F 37.1 °F 29.68 in SW 0.2 mph 4 mph 72% 0.00 in 0 W/m2
02:24 45.6 °F 36.8 °F 29.68 in SW 0.3 mph 4 mph 71.1% 0.00 in 0 W/m2
02:29 45.6 °F 36.8 °F 29.69 in SW 0.1 mph 4 mph 71% 0.00 in 0 W/m2
02:34 45.6 °F 36.8 °F 29.69 in West 2.9 mph 13 mph 71% 0.00 in 0 W/m2
02:39 45.9 °F 36.7 °F 29.69 in West 0.7 mph 13 mph 70% 0.00 in 0 W/m2
02:44 46.1 °F 36.4 °F 29.70 in West 2.8 mph 13 mph 68.6% 0.00 in 0 W/m2
02:49 46.4 °F 36.1 °F 29.70 in West 2 mph 15 mph 67.1% 0.00 in 0 W/m2
02:54 46.6 °F 35.9 °F 29.70 in West 1 mph 15 mph 66% 0.00 in 0 W/m2
02:59 46.7 °F 35.6 °F 29.70 in WNW 1.3 mph 15 mph 65% 0.00 in 0 W/m2
03:04 46.7 °F 35.1 °F 29.71 in WNW 3.8 mph 15 mph 63.8% 0.00 in 0 W/m2
03:09 46.8 °F 34.8 °F 29.71 in WNW 0.8 mph 12 mph 63% 0.00 in 0 W/m2
03:14 46.8 °F 34.5 °F 29.71 in West 2 mph 12 mph 62.1% 0.00 in 0 W/m2
03:19 46.8 °F 34.4 °F 29.72 in WNW 2.9 mph 12 mph 61.8% 0.00 in 0 W/m2
03:24 46.8 °F 34.1 °F 29.73 in West 0.1 mph 12 mph 61% 0.00 in 0 W/m2
03:29 46.7 °F 34 °F 29.73 in WNW 2.5 mph 12 mph 60.9% 0.00 in 0 W/m2
03:34 46.6 °F 33.4 °F 29.74 in WNW 4.4 mph 13 mph 59.8% 0.00 in 0 W/m2
03:39 46.6 °F 33.1 °F 29.74 in WNW 1.9 mph 13 mph 59% 0.00 in 0 W/m2
03:44 46.6 °F 33.1 °F 29.74 in NW 5 mph 13 mph 59% 0.00 in 0 W/m2
03:49 46.6 °F 32.6 °F 29.75 in WNW 7.5 mph 18 mph 58% 0.00 in 0 W/m2
03:54 46.7 °F 32.3 °F 29.75 in WNW 8.7 mph 19 mph 57% 0.00 in 0 W/m2
03:59 46.7 °F 32.3 °F 29.76 in WNW 7.3 mph 19 mph 57% 0.00 in 0 W/m2
04:09 46.4 °F 31.8 °F 29.77 in NW 3.7 mph 17 mph 56.6% 0.00 in 0 W/m2
04:14 46.2 °F 31.8 °F 29.77 in NW 2.9 mph 17 mph 56.9% 0.00 in 0 W/m2
04:19 45.9 °F 31.6 °F 29.78 in WNW 4.5 mph 17 mph 57% 0.00 in 0 W/m2
04:24 45.7 °F 31.3 °F 29.79 in NW 8 mph 22 mph 57% 0.00 in 0 W/m2
04:29 45.3 °F 31 °F 29.80 in NW 10.8 mph 28 mph 56.9% 0.00 in 0 W/m2
04:34 45 °F 30.3 °F 29.81 in NW 11.2 mph 28 mph 56% 0.00 in 0 W/m2
04:39 44.7 °F 30.3 °F 29.82 in WNW 14.6 mph 25 mph 56.6% 0.00 in 0 W/m2
04:44 44.5 °F 30.5 °F 29.82 in WNW 10.5 mph 25 mph 57.6% 0.00 in 0 W/m2
04:49 44.2 °F 30.4 °F 29.83 in NW 9.9 mph 25 mph 58% 0.00 in 0 W/m2
04:54 44 °F 30.2 °F 29.84 in NW 14.7 mph 25 mph 58.1% 0.00 in 0 W/m2
04:59 43.5 °F 29.7 °F 29.84 in NW 13.8 mph 25 mph 57.8% 0.00 in 0 W/m2
05:04 43.1 °F 29.1 °F 29.85 in WNW 11.1 mph 25 mph 57.4% 0.00 in 0 W/m2
05:09 42.6 °F 28.6 °F 29.85 in WNW 13.3 mph 23 mph 57.3% 0.00 in 0 W/m2
05:14 42.3 °F 28.2 °F 29.86 in WNW 14.6 mph 29 mph 57% 0.00 in 0 W/m2
05:19 42.1 °F 28.3 °F 29.86 in NW 9.7 mph 29 mph 57.9% 0.00 in 0 W/m2
05:24 41.9 °F 28.2 °F 29.86 in NW 9.5 mph 29 mph 58% 0.00 in 0 W/m2
05:29 41.8 °F 28.1 °F 29.86 in NW 11.8 mph 29 mph 58% 0.00 in 0 W/m2
05:34 41.7 °F 28 °F 29.86 in WNW 12.3 mph 29 mph 58% 0.00 in 0 W/m2
05:39 41.6 °F 27.9 °F 29.87 in WNW 12.1 mph 25 mph 58% 0.00 in 0 W/m2
05:44 41.6 °F 27.9 °F 29.87 in WNW 9.7 mph 25 mph 58% 0.00 in 0 W/m2
05:49 41.5 °F 27.9 °F 29.87 in WNW 11.8 mph 29 mph 58.2% 0.00 in 0 W/m2
05:54 41.5 °F 28 °F 29.87 in WNW 10.5 mph 29 mph 58.4% 0.00 in 0 W/m2
05:59 41.3 °F 27.7 °F 29.88 in WNW 10.2 mph 29 mph 58% 0.00 in 0 W/m2
06:04 41.2 °F 27.9 °F 29.88 in WNW 9.1 mph 29 mph 58.7% 0.00 in 0 W/m2
06:09 41.1 °F 27.8 °F 29.89 in NW 8.7 mph 21 mph 58.8% 0.00 in 0 W/m2
06:14 41 °F 27.8 °F 29.89 in NW 9.7 mph 21 mph 59% 0.00 in 0 W/m2
06:19 41 °F 27.7 °F 29.89 in NW 9.1 mph 21 mph 58.8% 0.00 in 0 W/m2
06:24 40.9 °F 27.1 °F 29.90 in NW 7.3 mph 22 mph 57.6% 0.00 in 0 W/m2
06:29 40.8 °F 27.1 °F 29.90 in NW 8.5 mph 22 mph 57.9% 0.00 in 0 W/m2
06:34 40.6 °F 26.8 °F 29.90 in NW 9.7 mph 22 mph 57.5% 0.00 in 0 W/m2
06:39 40.5 °F 26.3 °F 29.90 in NW 14 mph 23 mph 56.5% 0.00 in 11 W/m2
06:44 40.4 °F 26.1 °F 29.91 in NW 10.5 mph 23 mph 56.4% 0.00 in 18 W/m2
06:49 40.3 °F 26 °F 29.91 in NW 9.3 mph 23 mph 56.3% 0.00 in 23 W/m2
06:54 40.2 °F 25.8 °F 29.92 in NW 10 mph 23 mph 56.1% 0.00 in 30 W/m2
06:59 40.2 °F 26 °F 29.92 in NW 11.6 mph 23 mph 56.6% 0.00 in 42 W/m2
07:04 40.2 °F 26 °F 29.92 in WNW 8.5 mph 23 mph 56.5% 0.00 in 23 W/m2
07:09 40.2 °F 26.1 °F 29.93 in WNW 10.1 mph 18 mph 56.7% 0.00 in 77 W/m2
07:14 40.4 °F 25.8 °F 29.93 in WNW 11.9 mph 28 mph 55.7% 0.00 in 95 W/m2
07:19 40.7 °F 25.8 °F 29.93 in NW 11.5 mph 28 mph 55% 0.00 in 95 W/m2
07:24 40.8 °F 25.5 °F 29.94 in WNW 11.1 mph 28 mph 54% 0.00 in 90 W/m2
07:29 40.8 °F 25.5 °F 29.94 in WNW 11 mph 28 mph 54% 0.00 in 116 W/m2
07:34 40.9 °F 25.5 °F 29.94 in WNW 10.4 mph 28 mph 53.9% 0.00 in 111 W/m2
07:39 40.9 °F 25.1 °F 29.95 in WNW 11.9 mph 20 mph 53% 0.00 in 88 W/m2
07:44 40.7 °F 25.2 °F 29.95 in WNW 12.4 mph 28 mph 53.5% 0.00 in 105 W/m2
07:49 40.5 °F 25 °F 29.96 in NW 12.1 mph 28 mph 53.5% 0.00 in 98 W/m2
07:54 40.5 °F 24.9 °F 29.96 in NW 12.9 mph 28 mph 53.5% 0.00 in 121 W/m2
07:59 40.4 °F 25.1 °F 29.96 in NW 12.3 mph 28 mph 54% 0.00 in 144 W/m2
08:00 40.4 °F 25.1 °F 29.96 in NW 13 mph 28 mph 54% 0.00 in 144 W/m2
08:09 40.6 °F 25.6 °F 29.97 in NW 11.1 mph 20 mph 54.7% 0.00 in 163 W/m2
08:14 40.6 °F 25.6 °F 29.97 in NW 11.6 mph 25 mph 54.7% 0.00 in 93 W/m2
08:19 40.7 °F 25.5 °F 29.97 in WNW 13.6 mph 25 mph 54.3% 0.00 in 137 W/m2
08:24 40.9 °F 25.6 °F 29.97 in NW 9.6 mph 25 mph 54.1% 0.00 in 320 W/m2
08:29 41.3 °F 26 °F 29.98 in WNW 6.3 mph 25 mph 54.1% 0.00 in 320 W/m2
08:34 42.1 °F 26.5 °F 29.98 in WNW 10.2 mph 25 mph 53.7% 0.00 in 325 W/m2
08:39 42.5 °F 26.1 °F 29.99 in WNW 6.8 mph 20 mph 52.1% 0.00 in 309 W/m2
08:44 42.6 °F 26.4 °F 29.99 in NW 9.7 mph 20 mph 52.2% 0.00 in 264 W/m2
08:49 42.6 °F 26.1 °F 29.99 in NW 13 mph 30 mph 51.6% 0.00 in 383 W/m2
08:54 42.4 °F 25.9 °F 29.99 in WNW 9.9 mph 30 mph 51.7% 0.00 in 383 W/m2
08:59 42.4 °F 26 °F 29.99 in WNW 9.6 mph 30 mph 52% 0.00 in 239 W/m2
09:04 42.4 °F 25.8 °F 29.99 in WNW 11.5 mph 30 mph 51.6% 0.00 in 236 W/m2
09:09 42.3 °F 25.8 °F 30.00 in NW 8.6 mph 22 mph 51.7% 0.00 in 323 W/m2
09:14 42.3 °F 25.7 °F 30.00 in WNW 9.4 mph 23 mph 51.6% 0.00 in 267 W/m2
09:19 42.3 °F 25.9 °F 30.01 in WNW 8.8 mph 23 mph 51.7% 0.00 in 353 W/m2
09:24 42.5 °F 25.3 °F 30.01 in NW 13.2 mph 29 mph 50.3% 0.00 in 320 W/m2
09:29 42.4 °F 25.1 °F 30.01 in NW 9.8 mph 29 mph 50.1% 0.00 in 353 W/m2
09:33 42.4 °F 25.6 °F 30.01 in NW 7 mph 29 mph 51% 0.00 in 323 W/m2
09:39 42.7 °F 25.6 °F 30.01 in NW 8.2 mph 17 mph 50.3% 0.00 in 362 W/m2
09:44 43.1 °F 25.9 °F 30.01 in NW 8.5 mph 21 mph 50.4% 0.00 in 494 W/m2
09:49 43.4 °F 26.2 °F 30.01 in NNW 3.3 mph 21 mph 50.3% 0.00 in 478 W/m2
09:54 43.7 °F 26.3 °F 30.02 in NW 7 mph 21 mph 50% 0.00 in 591 W/m2
09:59 43.7 °F 26 °F 30.02 in NW 8.2 mph 21 mph 49.3% 0.00 in 606 W/m2
10:04 43.6 °F 25.5 °F 30.02 in WNW 7.6 mph 21 mph 48.5% 0.00 in 606 W/m2
10:09 43.9 °F 25.6 °F 30.02 in NW 8.1 mph 15 mph 48.2% 0.00 in 494 W/m2
10:14 44.1 °F 25.6 °F 30.02 in NW 8.7 mph 15 mph 47.7% 0.00 in 482 W/m2
10:19 44.2 °F 25.7 °F 30.02 in NNW 8.4 mph 18 mph 47.8% 0.00 in 496 W/m2
10:24 44.3 °F 25.8 °F 30.02 in NW 5 mph 18 mph 48% 0.00 in 563 W/m2
10:29 44.6 °F 26.2 °F 30.03 in NW 8.8 mph 18 mph 48.1% 0.00 in 629 W/m2
10:34 44.8 °F 25.5 °F 30.03 in NW 10.3 mph 22 mph 46.3% 0.00 in 666 W/m2
10:39 44.7 °F 24.9 °F 30.04 in NW 13 mph 22 mph 45.3% 0.00 in 666 W/m2
10:44 44.6 °F 24.7 °F 30.04 in NW 8.3 mph 22 mph 45.2% 0.00 in 237 W/m2
10:49 44.6 °F 25 °F 30.04 in NW 9.4 mph 22 mph 45.8% 0.00 in 339 W/m2
10:54 44.6 °F 25.1 °F 30.04 in WNW 7.5 mph 22 mph 45.9% 0.00 in 171 W/m2
10:59 44.9 °F 25 °F 30.04 in WNW 9.1 mph 22 mph 45.2% 0.00 in 341 W/m2
11:04 45.1 °F 25.3 °F 30.04 in WNW 5.3 mph 22 mph 45.4% 0.00 in 615 W/m2
11:09 45.6 °F 25.6 °F 30.05 in WNW 8.7 mph 20 mph 45.3% 0.00 in 615 W/m2
11:14 45.7 °F 25.1 °F 30.05 in WNW 6.9 mph 20 mph 44% 0.00 in 471 W/m2
11:19 45.5 °F 24.8 °F 30.04 in WNW 8.4 mph 20 mph 44% 0.00 in 466 W/m2
11:24 45.3 °F 24.9 °F 30.04 in NW 5.4 mph 20 mph 44.4% 0.00 in 329 W/m2
11:29 45.5 °F 25.2 °F 30.04 in WNW 8.1 mph 20 mph 44.6% 0.00 in 329 W/m2
11:34 45.6 °F 25 °F 30.04 in West 5.6 mph 20 mph 44% 0.00 in 434 W/m2
11:39 45.5 °F 25.2 °F 30.04 in WNW 8 mph 17 mph 44.7% 0.00 in 434 W/m2
11:44 45.2 °F 25 °F 30.05 in WNW 9 mph 18 mph 44.7% 0.00 in 434 W/m2
11:49 44.9 °F 24.8 °F 30.05 in NW 9.3 mph 18 mph 45% 0.00 in 591 W/m2
11:54 44.4 °F 24.1 °F 30.05 in WNW 9.4 mph 18 mph 44.3% 0.00 in 313 W/m2
11:59 44.3 °F 23.7 °F 30.04 in NW 9.3 mph 18 mph 44% 0.00 in 315 W/m2
12:00 44.2 °F 23.7 °F 30.04 in WNW 4 mph 18 mph 44% 0.00 in 118 W/m2
12:09 44.4 °F 23.6 °F 30.05 in WNW 11.6 mph 19 mph 43.6% 0.00 in 171 W/m2
12:14 44.3 °F 23.4 °F 30.05 in WNW 8.7 mph 19 mph 43.3% 0.00 in 188 W/m2
12:19 44.2 °F 23.7 °F 30.04 in WNW 9.3 mph 19 mph 44% 0.00 in 104 W/m2
12:24 44.2 °F 23.9 °F 30.05 in WNW 5.3 mph 19 mph 44.4% 0.00 in 178 W/m2
12:29 44.3 °F 23.9 °F 30.04 in WNW 8.1 mph 19 mph 44.2% 0.00 in 262 W/m2
12:34 44.3 °F 23.7 °F 30.04 in NW 7.3 mph 19 mph 43.8% 0.00 in 174 W/m2
12:39 44.5 °F 23.9 °F 30.04 in WNW 7.1 mph 16 mph 44% 0.00 in 237 W/m2
12:44 44.6 °F 23.5 °F 30.04 in WNW 8.3 mph 17 mph 43% 0.00 in 109 W/m2
12:49 44.6 °F 23.7 °F 30.04 in WNW 3.9 mph 17 mph 43.4% 0.00 in 209 W/m2
12:54 44.7 °F 23.9 °F 30.04 in West 3.3 mph 17 mph 43.5% 0.00 in 251 W/m2
12:56 44.9 °F 24.2 °F 30.03 in WNW 9.4 mph 17 mph 43.8% 0.00 in 105 W/m2
13:04 45.1 °F 23.6 °F 30.03 in NW 3.6 mph 23 mph 42.3% 0.00 in 114 W/m2
13:09 45.3 °F 23.8 °F 30.03 in WNW 3.8 mph 10 mph 42.3% 0.00 in 338 W/m2
13:14 45.7 °F 23.5 °F 30.03 in WNW 6.9 mph 12 mph 41.2% 0.00 in 338 W/m2
13:19 45.8 °F 23.8 °F 30.03 in WNW 5.8 mph 13 mph 41.5% 0.00 in 98 W/m2
13:24 46 °F 24 °F 30.02 in West 3.6 mph 13 mph 41.5% 0.00 in 195 W/m2
13:29 46.2 °F 24 °F 30.03 in WNW 4.6 mph 13 mph 41.3% 0.00 in 202 W/m2
13:34 46.4 °F 23.7 °F 30.02 in West 5.2 mph 16 mph 40.6% 0.00 in 246 W/m2
13:39 46.3 °F 23.5 °F 30.02 in WSW 2.1 mph 16 mph 40.2% 0.00 in 167 W/m2
13:44 46.4 °F 23.7 °F 30.02 in WNW 3.9 mph 16 mph 40.5% 0.00 in 316 W/m2
13:49 46.5 °F 23.6 °F 30.02 in NW 4.4 mph 16 mph 40.2% 0.00 in 369 W/m2
13:54 46.6 °F 23.7 °F 30.02 in WNW 7.5 mph 16 mph 40.1% 0.00 in 197 W/m2
13:59 46.7 °F 23.4 °F 30.02 in WSW 5.5 mph 17 mph 39.7% 0.00 in 107 W/m2
14:04 46.6 °F 23 °F 30.02 in WNW 7.6 mph 17 mph 39% 0.00 in 413 W/m2
14:09 46.6 °F 23.2 °F 30.02 in WNW 7.4 mph 19 mph 39.3% 0.00 in 380 W/m2
14:14 46.6 °F 22.7 °F 30.02 in WNW 7.6 mph 19 mph 38.5% 0.00 in 160 W/m2
14:19 46.6 °F 22.8 °F 30.02 in West 6.8 mph 19 mph 38.7% 0.00 in 192 W/m2
14:24 46.6 °F 22.8 °F 30.02 in WNW 12 mph 22 mph 38.8% 0.00 in 383 W/m2
14:29 46.5 °F 22.5 °F 30.02 in WNW 6.5 mph 22 mph 38.3% 0.00 in 267 W/m2
14:34 46.8 °F 22.1 °F 30.03 in WNW 7.6 mph 22 mph 37.3% 0.00 in 211 W/m2
14:39 46.8 °F 21.3 °F 30.03 in WNW 13.5 mph 21 mph 36% 0.00 in 475 W/m2
14:44 46.7 °F 21.2 °F 30.03 in WNW 11 mph 24 mph 36.1% 0.00 in 531 W/m2
14:49 46.5 °F 21.4 °F 30.03 in WNW 11 mph 24 mph 36.6% 0.00 in 531 W/m2
14:54 46.5 °F 21.6 °F 30.04 in WNW 11 mph 24 mph 36.9% 0.00 in 527 W/m2
14:59 46.5 °F 21.7 °F 30.04 in WNW 8.4 mph 24 mph 37.1% 0.00 in 519 W/m2
15:04 46.5 °F 22 °F 30.04 in WNW 4.3 mph 24 mph 37.6% 0.00 in 179 W/m2
15:09 46.6 °F 22.7 °F 30.04 in West 2.9 mph 15 mph 38.5% 0.00 in 47 W/m2
15:14 46.6 °F 22.3 °F 30.04 in West 2.8 mph 15 mph 37.8% 0.00 in 39 W/m2
15:19 46.5 °F 22.5 °F 30.04 in West 7 mph 17 mph 38.4% 0.00 in 37 W/m2
15:23 46.4 °F 22.4 °F 30.04 in WNW 6.3 mph 17 mph 38.4% 0.00 in 35 W/m2
15:29 46.3 °F 22.2 °F 30.04 in WNW 7.2 mph 19 mph 38.2% 0.00 in 33 W/m2
15:34 46.1 °F 21.9 °F 30.04 in WNW 7.9 mph 20 mph 38% 0.00 in 33 W/m2
15:39 46.1 °F 21.9 °F 30.04 in West 6.2 mph 18 mph 38% 0.00 in 32 W/m2
15:44 46.1 °F 22.2 °F 30.04 in WNW 4.5 mph 18 mph 38.5% 0.00 in 32 W/m2
15:49 46.1 °F 21.9 °F 30.05 in WNW 8.2 mph 22 mph 38% 0.00 in 30 W/m2
15:54 46 °F 21.8 °F 30.05 in WNW 6 mph 22 mph 38% 0.00 in 30 W/m2
15:59 46 °F 21.8 °F 30.05 in WNW 6.2 mph 22 mph 38% 0.00 in 28 W/m2
16:00 46 °F 21.8 °F 30.05 in WNW 6 mph 22 mph 38% 0.00 in 28 W/m2
16:09 45.8 °F 21.7 °F 30.05 in WNW 4.8 mph 14 mph 38.1% 0.00 in 26 W/m2
16:14 45.8 °F 21.5 °F 30.06 in NW 7.7 mph 15 mph 37.7% 0.00 in 26 W/m2
16:19 45.8 °F 21.2 °F 30.06 in NW 9.3 mph 20 mph 37.3% 0.00 in 25 W/m2
16:24 45.7 °F 20.8 °F 30.06 in WNW 7.9 mph 20 mph 36.8% 0.00 in 25 W/m2
16:29 45.6 °F 20.8 °F 30.06 in WNW 8.2 mph 20 mph 37% 0.00 in 23 W/m2
16:34 45.4 °F 20.9 °F 30.06 in WNW 7.2 mph 20 mph 37.4% 0.00 in 23 W/m2
16:39 45.3 °F 21.1 °F 30.06 in NW 5.4 mph 16 mph 37.8% 0.00 in 21 W/m2
16:44 45.1 °F 21 °F 30.07 in NW 7.1 mph 16 mph 38% 0.00 in 21 W/m2
16:49 44.9 °F 20.7 °F 30.07 in WNW 10.1 mph 22 mph 37.7% 0.00 in 19 W/m2
16:54 44.8 °F 20.8 °F 30.07 in WNW 4.2 mph 22 mph 38.2% 0.00 in 19 W/m2
16:59 44.5 °F 20.8 °F 30.07 in NW 6.7 mph 22 mph 38.5% 0.00 in 18 W/m2
17:04 44.3 °F 20.6 °F 30.08 in WNW 9.9 mph 22 mph 38.5% 0.00 in 16 W/m2
17:09 44.2 °F 20.2 °F 30.08 in WNW 8.4 mph 19 mph 38% 0.00 in 14 W/m2
17:14 44 °F 20.4 °F 30.08 in WNW 7 mph 19 mph 38.6% 0.00 in 12 W/m2
17:19 43.8 °F 20.8 °F 30.09 in NW 5.2 mph 19 mph 39.5% 0.00 in 11 W/m2
17:24 43.7 °F 20.7 °F 30.08 in NW 4.9 mph 19 mph 39.6% 0.00 in 11 W/m2
17:29 43.5 °F 21 °F 30.09 in WNW 6.9 mph 19 mph 40.4% 0.00 in 9 W/m2
17:34 43.2 °F 20.7 °F 30.09 in WNW 8.9 mph 19 mph 40.2% 0.00 in 5 W/m2
17:39 43 °F 20.4 °F 30.09 in WNW 7.3 mph 18 mph 40% 0.00 in 0 W/m2
17:44 42.9 °F 20.6 °F 30.09 in WNW 3.8 mph 18 mph 40.7% 0.00 in 0 W/m2
17:49 42.7 °F 20.6 °F 30.10 in WNW 4.9 mph 18 mph 40.9% 0.00 in 0 W/m2
17:54 42.5 °F 20.6 °F 30.10 in WNW 5.9 mph 18 mph 41.2% 0.00 in 0 W/m2
17:59 42.3 °F 20.9 °F 30.11 in WNW 5.7 mph 18 mph 42% 0.00 in 0 W/m2
18:04 42.2 °F 20.7 °F 30.11 in WNW 5.9 mph 18 mph 41.9% 0.00 in 0 W/m2
18:09 42 °F 20.6 °F 30.12 in WNW 6 mph 13 mph 42% 0.00 in 0 W/m2
18:14 41.8 °F 20.4 °F 30.12 in WNW 4 mph 13 mph 42% 0.00 in 0 W/m2
18:19 41.7 °F 20.3 °F 30.12 in WNW 6.1 mph 13 mph 42% 0.00 in 0 W/m2
18:24 41.6 °F 20.1 °F 30.12 in WNW 3.9 mph 13 mph 41.7% 0.00 in 0 W/m2
18:29 41.5 °F 20.5 °F 30.12 in WNW 3.9 mph 14 mph 42.7% 0.00 in 0 W/m2
18:34 41.3 °F 20 °F 30.13 in WNW 5.9 mph 14 mph 42.1% 0.00 in 0 W/m2
18:39 41.1 °F 19.8 °F 30.13 in WNW 5.2 mph 12 mph 42% 0.00 in 0 W/m2
18:44 40.9 °F 19.9 °F 30.13 in WNW 5.6 mph 14 mph 42.4% 0.00 in 0 W/m2
18:49 40.9 °F 19.6 °F 30.13 in WNW 4.3 mph 14 mph 42% 0.00 in 0 W/m2
18:54 40.7 °F 19.5 °F 30.13 in WNW 4.7 mph 14 mph 42.2% 0.00 in 0 W/m2
18:59 40.6 °F 19.3 °F 30.13 in WNW 3.9 mph 14 mph 42% 0.00 in 0 W/m2
19:04 40.5 °F 19.4 °F 30.13 in WNW 4.3 mph 14 mph 42.4% 0.00 in 0 W/m2
19:09 40.4 °F 19.7 °F 30.14 in WNW 2.2 mph 10 mph 43% 0.00 in 0 W/m2
19:14 40.2 °F 19.5 °F 30.14 in WNW 3.6 mph 10 mph 43% 0.00 in 0 W/m2
19:19 40.1 °F 19.4 °F 30.15 in WNW 0.7 mph 10 mph 43% 0.00 in 0 W/m2
19:24 39.9 °F 19.6 °F 30.15 in WNW 1.5 mph 10 mph 43.6% 0.00 in 0 W/m2
19:29 39.7 °F 19.5 °F 30.15 in WNW 1.2 mph 10 mph 43.9% 0.00 in 0 W/m2
19:34 39.6 °F 19.4 °F 30.15 in WNW 0.9 mph 10 mph 43.9% 0.00 in 0 W/m2
19:39 39.5 °F 19.4 °F 30.15 in WNW 0.1 mph 5 mph 44% 0.00 in 0 W/m2
19:44 39.3 °F 19.2 °F 30.16 in Calm   5 mph 44% 0.00 in 0 W/m2
19:49 39.2 °F 18.8 °F 30.16 in Calm   5 mph 43.4% 0.00 in 0 W/m2
19:54 39 °F 18.7 °F 30.16 in WNW 0.2 mph 5 mph 43.5% 0.00 in 0 W/m2
19:59 38.9 °F 18.8 °F 30.16 in NW 0.3 mph 5 mph 44% 0.00 in 0 W/m2
20:00 38.8 °F 18.8 °F 30.16 in Calm   5 mph 44% 0.00 in 0 W/m2
20:09 38.6 °F 18.9 °F 30.16 in Calm   1 mph 44.4% 0.00 in 0 W/m2
20:14 38.6 °F 18.7 °F 30.17 in NW 0.1 mph 2 mph 44.3% 0.00 in 0 W/m2
20:19 38.4 °F 18.9 °F 30.17 in NW 0.1 mph 2 mph 44.8% 0.00 in 0 W/m2
20:24 38.3 °F 18.8 °F 30.17 in NW 0.2 mph 2 mph 45% 0.00 in 0 W/m2
20:29 38.2 °F 18.8 °F 30.17 in Calm   2 mph 45.2% 0.00 in 0 W/m2
20:34 38 °F 18.9 °F 30.17 in Calm   2 mph 45.7% 0.00 in 0 W/m2
20:39 37.8 °F 18.7 °F 30.17 in Calm     45.6% 0.00 in 0 W/m2
20:44 37.6 °F 18.7 °F 30.17 in Calm     46% 0.00 in 0 W/m2
20:49 37.4 °F 18.5 °F 30.18 in Calm     46% 0.00 in 0 W/m2
20:54 37.2 °F 18.3 °F 30.18 in Calm     46% 0.00 in 0 W/m2
20:59 36.9 °F 18.6 °F 30.18 in Calm     47% 0.00 in 0 W/m2
21:04 36.7 °F 18.5 °F 30.19 in Calm     47.2% 0.00 in 0 W/m2
21:09 36.5 °F 18.7 °F 30.19 in Calm     48% 0.00 in 0 W/m2
21:14 36.3 °F 18.8 °F 30.19 in Calm     48.7% 0.00 in 0 W/m2
21:19 36.1 °F 18.8 °F 30.19 in Calm     49% 0.00 in 0 W/m2
21:24 35.9 °F 18.8 °F 30.19 in Calm   1 mph 49.5% 0.00 in 0 W/m2
21:29 35.7 °F 18.9 °F 30.20 in Calm   1 mph 50% 0.00 in 0 W/m2
21:34 35.5 °F 19.2 °F 30.20 in NW 0.1 mph 2 mph 51% 0.00 in 0 W/m2
21:39 35.3 °F 19.1 °F 30.20 in NW 0.1 mph 2 mph 51.4% 0.00 in 0 W/m2
21:44 35.1 °F 19.5 °F 30.20 in NW 0.1 mph 2 mph 52.6% 0.00 in 0 W/m2
21:49 35 °F 19.6 °F 30.20 in NW 0.2 mph 2 mph 53% 0.00 in 0 W/m2
21:54 34.8 °F 19.9 °F 30.21 in Calm   2 mph 54% 0.00 in 0 W/m2
21:59 34.7 °F 19.8 °F 30.21 in Calm   2 mph 54% 0.00 in 0 W/m2
22:04 34.6 °F 19.7 °F 30.20 in Calm   2 mph 54% 0.00 in 0 W/m2
22:09 34.5 °F 19.7 °F 30.20 in Calm     54.3% 0.00 in 0 W/m2
22:14 34.4 °F 19.9 °F 30.21 in Calm     55% 0.00 in 0 W/m2
22:19 34.4 °F 19.9 °F 30.21 in Calm   1 mph 55% 0.00 in 0 W/m2
22:24 34.2 °F 19.9 °F 30.21 in NW 0.1 mph 1 mph 55.3% 0.00 in 0 W/m2
22:28 34.2 °F 19.8 °F 30.21 in Calm   1 mph 55.2% 0.00 in 0 W/m2
22:34 34.1 °F 19.9 °F 30.22 in NW 0.1 mph 1 mph 55.7% 0.00 in 0 W/m2
22:39 34 °F 19.9 °F 30.22 in Calm   1 mph 56% 0.00 in 0 W/m2
22:44 33.9 °F 19.8 °F 30.22 in Calm   1 mph 56% 0.00 in 0 W/m2
22:49 33.8 °F 19.8 °F 30.22 in NW 0.1 mph 1 mph 56% 0.00 in 0 W/m2
22:54 33.7 °F 19.9 °F 30.22 in Calm   1 mph 56.6% 0.00 in 0 W/m2
22:59 33.5 °F 20.1 °F 30.22 in Calm   1 mph 57.4% 0.00 in 0 W/m2
23:00 33.4 °F 20.2 °F 30.22 in Calm   1 mph 58% 0.00 in 0 W/m2
23:09 33.2 °F 20.2 °F 30.22 in NNW 1.5 mph 12 mph 58.5% 0.00 in 0 W/m2
23:14 33 °F 20.2 °F 30.21 in NNW 0.4 mph 12 mph 58.7% 0.00 in 0 W/m2
23:19 33 °F 20.2 °F 30.21 in NNW 2.5 mph 12 mph 58.9% 0.00 in 0 W/m2
23:24 33.1 °F 20.1 °F 30.21 in NNW 1.5 mph 12 mph 58.3% 0.00 in 0 W/m2
23:29 33.1 °F 20 °F 30.20 in North 0.7 mph 12 mph 58% 0.00 in 0 W/m2
23:34 33.2 °F 20 °F 30.20 in NNW 2.3 mph 12 mph 58% 0.00 in 0 W/m2
23:39 33.2 °F 19.8 °F 30.20 in NNW 5 mph 10 mph 57.3% 0.00 in 0 W/m2
23:44 33.3 °F 19.8 °F 30.21 in NW 4 mph 10 mph 57% 0.00 in 0 W/m2
23:49 33.4 °F 19.8 °F 30.21 in NW 3.5 mph 13 mph 56.8% 0.00 in 0 W/m2
23:54 33.5 °F 19.6 °F 30.22 in NW 3 mph 13 mph 56.2% 0.00 in 0 W/m2
23:59 33.5 °F 19.5 °F 30.22 in NW 0.4 mph 13 mph 56% 0.00 in 0 W/m2
Hartford County Weather
Compliments of Weather Underground - 2 mb